createdAt,value
2022-08-29T00:02:10.189Z,102063.13
2022-08-29T00:04:42.968Z,102064.91
2022-08-29T00:07:15.482Z,102069.31
2022-08-29T00:09:47.438Z,102063.09
2022-08-29T00:12:19.805Z,102062.19
2022-08-29T00:14:51.813Z,102058.59
2022-08-29T00:17:23.999Z,102065.63
2022-08-29T00:19:55.990Z,102061.28
2022-08-29T00:22:28.173Z,102065.75
2022-08-29T00:25:05.022Z,102069.34
2022-08-29T00:27:37.067Z,102072.09
2022-08-29T00:30:11.006Z,102068.56
2022-08-29T00:32:43.190Z,102072.09
2022-08-29T00:35:21.473Z,102064.25
2022-08-29T00:37:55.081Z,102070.50
2022-08-29T00:40:38.407Z,102059.94
2022-08-29T00:43:11.238Z,102062.63
2022-08-29T00:46:00.805Z,102066.19
2022-08-29T00:48:35.081Z,102060.25
2022-08-29T00:51:13.452Z,102060.22
2022-08-29T00:53:50.707Z,102048.81
2022-08-29T00:56:22.794Z,102055.91
2022-08-29T00:59:02.699Z,102053.34
2022-08-29T01:01:35.162Z,102060.44
2022-08-29T01:04:09.801Z,102057.91
2022-08-29T01:06:48.009Z,102067.63
2022-08-29T01:09:21.189Z,102066.81
2022-08-29T01:12:13.168Z,102071.16
2022-08-29T01:14:59.910Z,102058.91
2022-08-29T01:17:39.402Z,102064.34
2022-08-29T01:20:56.501Z,102069.66
2022-08-29T01:23:56.414Z,102071.44
2022-08-29T01:26:30.304Z,102064.44
2022-08-29T01:29:02.413Z,102065.34
2022-08-29T01:31:56.625Z,102062.75
2022-08-29T01:34:30.297Z,102063.66
2022-08-29T01:37:06.670Z,102068.13
2022-08-29T01:39:42.362Z,102062.84
2022-08-29T01:42:21.761Z,102057.56
2022-08-29T01:44:59.443Z,102064.59
2022-08-29T01:47:38.842Z,102062.84
2022-08-29T01:50:16.039Z,102069.88
2022-08-29T01:52:48.118Z,102073.47
2022-08-29T01:55:20.240Z,102061.13
2022-08-29T01:57:52.525Z,102060.25
2022-08-29T02:00:26.292Z,102065.53
2022-08-29T02:03:01.051Z,102055.03
2022-08-29T02:05:33.042Z,102050.69
2022-08-29T02:08:05.313Z,102063.94
2022-08-29T02:10:37.293Z,102062.22
2022-08-29T02:13:10.432Z,102063.09
2022-08-29T02:15:42.467Z,102069.28
2022-08-29T02:18:14.498Z,102064.91
2022-08-29T02:20:46.802Z,102063.22
2022-08-29T02:23:30.469Z,102061.41
2022-08-29T02:26:04.991Z,102067.63
2022-08-29T02:28:38.466Z,102064.19
2022-08-29T02:31:10.606Z,102065.94
2022-08-29T02:33:42.709Z,102064.19
2022-08-29T02:36:16.387Z,102064.22
2022-08-29T02:38:51.215Z,102063.38
2022-08-29T02:41:23.371Z,102053.72
2022-08-29T02:43:55.434Z,102063.41
2022-08-29T02:46:27.501Z,102062.50
2022-08-29T02:49:00.551Z,102062.50
2022-08-29T02:51:34.998Z,102059.06
2022-08-29T02:54:07.098Z,102065.28
2022-08-29T02:56:39.991Z,102066.03
2022-08-29T02:59:12.194Z,102058.03
2022-08-29T03:01:44.281Z,102057.19
2022-08-29T03:04:16.259Z,102063.34
2022-08-29T03:06:48.365Z,102069.47
2022-08-29T03:09:20.328Z,102066.75
2022-08-29T03:11:56.185Z,102076.34
2022-08-29T03:14:28.283Z,102070.28
2022-08-29T03:17:00.504Z,102062.38
2022-08-29T03:19:32.543Z,102071.16
2022-08-29T03:22:09.627Z,102070.34
2022-08-29T03:24:41.654Z,102064.25
2022-08-29T03:27:13.919Z,102060.69
2022-08-29T03:29:46.401Z,102062.56
2022-08-29T03:32:18.379Z,102057.34
2022-08-29T03:34:50.601Z,102061.72
2022-08-29T03:37:22.875Z,102063.47
2022-08-29T03:39:56.439Z,102061.78
2022-08-29T03:42:28.465Z,102053.06
2022-08-29T03:45:04.918Z,102052.97
2022-08-29T03:47:36.969Z,102058.22
2022-08-29T03:50:10.379Z,102059.91
2022-08-29T03:52:44.265Z,102053.78
2022-08-29T03:55:17.474Z,102063.41
2022-08-29T03:57:49.465Z,102055.44
2022-08-29T04:00:21.686Z,102061.59
2022-08-29T04:02:55.606Z,102066.78
2022-08-29T04:05:27.867Z,102070.25
2022-08-29T04:08:00.384Z,102059.63
2022-08-29T04:10:38.559Z,102057.84
2022-08-29T04:13:10.592Z,102060.53
2022-08-29T04:15:43.029Z,102058.72
2022-08-29T04:18:15.612Z,102059.59
2022-08-29T04:21:02.494Z,102062.25
2022-08-29T04:23:36.692Z,102063.97
2022-08-29T04:26:35.779Z,102069.25
2022-08-29T04:29:12.093Z,102078.97
2022-08-29T04:31:44.456Z,102081.56
2022-08-29T04:34:16.845Z,102081.53
2022-08-29T04:36:48.842Z,102076.22
2022-08-29T04:39:20.867Z,102082.34
2022-08-29T04:41:52.968Z,102085.81
2022-08-29T04:44:25.036Z,102088.38
2022-08-29T04:46:57.003Z,102091.00
2022-08-29T04:49:29.088Z,102088.25
2022-08-29T04:52:01.169Z,102086.53
2022-08-29T04:54:33.198Z,102078.56
2022-08-29T04:57:05.313Z,102086.44
2022-08-29T04:59:37.429Z,102082.75
2022-08-29T05:02:09.433Z,102092.41
2022-08-29T05:04:41.479Z,102085.41
2022-08-29T05:07:13.447Z,102086.31
2022-08-29T05:09:45.447Z,102093.28
2022-08-29T05:12:18.426Z,102104.72
2022-08-29T05:14:50.581Z,102091.38
2022-08-29T05:17:24.577Z,102095.75
2022-08-29T05:19:56.618Z,102093.06
2022-08-29T05:22:28.601Z,102095.69
2022-08-29T05:25:01.695Z,102092.13
2022-08-29T05:27:34.169Z,102098.38
2022-08-29T05:30:07.367Z,102106.22
2022-08-29T05:32:39.370Z,102101.78
2022-08-29T05:35:11.372Z,102107.88
2022-08-29T05:37:43.326Z,102107.00
2022-08-29T05:40:15.352Z,102107.00
2022-08-29T05:42:47.373Z,102115.84
2022-08-29T05:45:22.288Z,102114.06
2022-08-29T05:47:56.043Z,102108.72
2022-08-29T05:50:28.081Z,102113.88
2022-08-29T05:53:00.062Z,102117.34
2022-08-29T05:55:32.052Z,102121.75
2022-08-29T05:58:04.105Z,102126.06
2022-08-29T06:00:40.023Z,102125.22
2022-08-29T06:03:14.388Z,102127.81
2022-08-29T06:05:52.444Z,102128.63
2022-08-29T06:08:24.474Z,102130.22
2022-08-29T06:10:56.473Z,102129.38
2022-08-29T06:13:28.544Z,102135.31
2022-08-29T06:16:00.643Z,102127.94
2022-08-29T06:18:35.901Z,102135.66
2022-08-29T06:21:09.550Z,102138.09
2022-08-29T06:23:43.977Z,102137.91
2022-08-29T06:26:16.373Z,102131.66
2022-08-29T06:28:48.957Z,102128.84
2022-08-29T06:31:28.156Z,102138.41
2022-08-29T06:34:04.943Z,102136.56
2022-08-29T06:36:38.029Z,102143.63
2022-08-29T06:39:11.594Z,102137.47
2022-08-29T06:41:43.679Z,102144.56
2022-08-29T06:44:15.762Z,102144.41
2022-08-29T06:46:49.974Z,102149.50
2022-08-29T06:49:22.190Z,102152.75
2022-08-29T06:51:58.101Z,102155.28
2022-08-29T06:54:30.567Z,102158.56
2022-08-29T06:57:02.609Z,102152.25
2022-08-29T06:59:34.587Z,102152.31
2022-08-29T07:02:06.965Z,102156.88
2022-08-29T07:04:38.974Z,102162.31
2022-08-29T07:07:11.078Z,102162.25
2022-08-29T07:09:44.317Z,102163.13
2022-08-29T07:12:16.331Z,102158.72
2022-08-29T07:14:48.315Z,102163.03
2022-08-29T07:17:25.839Z,102157.44
2022-08-29T07:19:57.982Z,102161.63
2022-08-29T07:22:30.194Z,102153.56
2022-08-29T07:25:02.360Z,102156.13
2022-08-29T07:27:36.549Z,102156.16
2022-08-29T07:30:09.325Z,102155.50
2022-08-29T07:32:43.400Z,102154.63
2022-08-29T07:35:19.842Z,102168.69
2022-08-29T07:37:59.085Z,102169.28
2022-08-29T07:40:31.266Z,102162.72
2022-08-29T07:43:04.705Z,102162.94
2022-08-29T07:45:39.798Z,102157.59
2022-08-29T07:48:11.928Z,102156.13
2022-08-29T07:50:43.870Z,102163.91
2022-08-29T07:53:17.361Z,102153.66
2022-08-29T07:55:49.436Z,102153.00
2022-08-29T07:58:21.446Z,102149.13
2022-08-29T08:00:53.394Z,102143.75
2022-08-29T08:03:27.188Z,102155.25
2022-08-29T08:05:59.714Z,102150.41
2022-08-29T08:08:36.689Z,102148.41
2022-08-29T08:11:09.862Z,102157.38
2022-08-29T08:13:42.145Z,102154.31
2022-08-29T08:16:19.123Z,102153.16
2022-08-29T08:18:52.203Z,102164.25
2022-08-29T08:21:26.598Z,102161.91
2022-08-29T08:23:58.756Z,102166.81
2022-08-29T08:26:31.209Z,102164.59
2022-08-29T08:29:04.295Z,102171.50
2022-08-29T08:31:36.657Z,102167.16
2022-08-29T08:34:08.757Z,102181.22
2022-08-29T08:36:42.848Z,102168.84
2022-08-29T08:39:15.118Z,102173.13
2022-08-29T08:41:57.235Z,102181.38
2022-08-29T08:44:55.984Z,102184.81
2022-08-29T08:47:37.940Z,102184.00
2022-08-29T08:50:21.575Z,102189.00
2022-08-29T08:53:00.330Z,102186.03
2022-08-29T08:55:46.972Z,102185.47
2022-08-29T08:58:32.868Z,102190.94
2022-08-29T09:01:21.633Z,102193.16
2022-08-29T09:04:12.848Z,102191.34
2022-08-29T09:07:27.629Z,102192.34
2022-08-29T09:10:40.923Z,102193.72
2022-08-29T09:13:25.885Z,102189.41
2022-08-29T09:16:01.703Z,102184.53
2022-08-29T09:18:40.794Z,102190.59
2022-08-29T09:21:39.922Z,102199.13
2022-08-29T09:24:28.853Z,102194.81
2022-08-29T09:27:00.920Z,102191.41
2022-08-29T09:29:32.946Z,102190.75
2022-08-29T09:32:18.806Z,102192.56
2022-08-29T09:35:10.030Z,102192.50
2022-08-29T09:37:42.278Z,102186.31
2022-08-29T09:40:19.341Z,102179.97
2022-08-29T09:43:03.901Z,102185.31
2022-08-29T09:45:35.968Z,102181.28
2022-08-29T09:48:14.972Z,102185.63
2022-08-29T09:50:47.349Z,102182.38
2022-08-29T09:53:24.628Z,102190.50
2022-08-29T09:56:07.872Z,102183.69
2022-08-29T09:58:42.836Z,102187.13
2022-08-29T10:01:22.701Z,102178.84
2022-08-29T10:04:03.680Z,102176.59
2022-08-29T10:06:44.214Z,102183.75
2022-08-29T10:09:28.628Z,102181.63
2022-08-29T10:12:14.088Z,102178.56
2022-08-29T10:14:53.671Z,102171.44
2022-08-29T10:17:58.119Z,102175.44
2022-08-29T10:20:56.196Z,102179.25
2022-08-29T10:24:01.447Z,102177.88
2022-08-29T10:27:12.219Z,102177.09
2022-08-29T10:30:09.491Z,102191.34
2022-08-29T10:32:54.214Z,102190.06
2022-08-29T10:36:06.737Z,102198.00
2022-08-29T10:39:06.433Z,102201.44
2022-08-29T10:41:56.418Z,102203.00
2022-08-29T10:44:48.198Z,102201.72
2022-08-29T10:47:58.693Z,102197.94
2022-08-29T10:50:58.801Z,102193.44
2022-08-29T10:54:07.023Z,102195.97
2022-08-29T10:56:44.391Z,102181.84
2022-08-29T10:59:52.705Z,102182.69
2022-08-29T11:03:24.870Z,102181.72
2022-08-29T11:06:07.020Z,102175.97
2022-08-29T11:08:48.060Z,102184.34
2022-08-29T11:11:21.485Z,102190.31
2022-08-29T11:14:05.425Z,102178.72
2022-08-29T11:16:47.101Z,102177.88
2022-08-29T11:19:29.320Z,102189.44
2022-08-29T11:22:16.447Z,102183.28
2022-08-29T11:25:08.450Z,102179.63
2022-08-29T11:28:04.186Z,102182.22
2022-08-29T11:31:15.118Z,102176.38
2022-08-29T11:34:43.365Z,102182.22
2022-08-29T11:37:42.842Z,102183.75
2022-08-29T11:41:30.666Z,102191.31
2022-08-29T11:44:31.401Z,102187.97
2022-08-29T11:47:46.388Z,102182.81
2022-08-29T11:50:30.155Z,102177.97
2022-08-29T11:53:35.314Z,102177.09
2022-08-29T11:56:13.482Z,102177.41
2022-08-29T11:58:52.451Z,102183.41
2022-08-29T12:01:36.737Z,102191.81
2022-08-29T12:04:11.764Z,102182.34
2022-08-29T12:07:01.287Z,102181.78
2022-08-29T12:10:04.178Z,102172.41
2022-08-29T12:12:45.359Z,102171.09
2022-08-29T12:15:32.658Z,102176.84
2022-08-29T12:18:13.406Z,102172.50
2022-08-29T12:20:55.889Z,102167.31
2022-08-29T12:23:35.478Z,102163.59
2022-08-29T12:26:43.658Z,102165.69
2022-08-29T12:29:44.723Z,102148.03
2022-08-29T12:33:07.952Z,102155.50
2022-08-29T12:36:07.538Z,102153.28
2022-08-29T12:39:19.865Z,102157.91
2022-08-29T12:42:01.774Z,102155.81
2022-08-29T12:44:47.270Z,102151.78
2022-08-29T12:47:28.727Z,102149.97
2022-08-29T12:50:06.978Z,102144.38
2022-08-29T12:52:39.436Z,102146.13
2022-08-29T12:55:43.583Z,102148.13
2022-08-29T12:59:00.216Z,102140.69
2022-08-29T13:01:39.185Z,102144.13
2022-08-29T13:04:11.077Z,102137.41
2022-08-29T13:07:16.391Z,102139.84
2022-08-29T13:09:55.970Z,102135.75
2022-08-29T13:12:35.721Z,102130.44
2022-08-29T13:15:30.849Z,102132.53
2022-08-29T13:18:06.570Z,102135.72
2022-08-29T13:20:38.504Z,102134.75
2022-08-29T13:23:26.331Z,102136.38
2022-08-29T13:26:14.701Z,102132.84
2022-08-29T13:28:48.230Z,102127.16
2022-08-29T13:31:21.589Z,102137.66
2022-08-29T13:33:56.212Z,102128.00
2022-08-29T13:36:31.096Z,102133.38
2022-08-29T13:39:18.204Z,102131.28
2022-08-29T13:42:02.094Z,102125.75
2022-08-29T13:44:48.975Z,102121.50
2022-08-29T13:47:28.048Z,102125.41
2022-08-29T13:50:05.651Z,102120.28
2022-08-29T13:52:38.705Z,102120.28
2022-08-29T13:55:11.414Z,102116.91
2022-08-29T13:57:46.648Z,102118.97
2022-08-29T14:00:32.010Z,102114.59
2022-08-29T14:03:09.317Z,102118.53
2022-08-29T14:05:41.511Z,102104.78
2022-08-29T14:08:14.121Z,102112.06
2022-08-29T14:10:46.251Z,102105.00
2022-08-29T14:13:18.249Z,102102.78
2022-08-29T14:15:50.615Z,102104.34
2022-08-29T14:18:22.655Z,102098.28
2022-08-29T14:20:54.838Z,102099.25
2022-08-29T14:23:26.868Z,102102.03
2022-08-29T14:25:59.988Z,102105.50
2022-08-29T14:28:32.037Z,102099.34
2022-08-29T14:31:04.311Z,102094.78
2022-08-29T14:33:36.895Z,102102.09
2022-08-29T14:36:09.235Z,102095.56
2022-08-29T14:38:41.227Z,102098.25
2022-08-29T14:41:13.434Z,102105.91
2022-08-29T14:43:45.413Z,102091.06
2022-08-29T14:46:17.446Z,102097.13
2022-08-29T14:48:49.523Z,102096.59
2022-08-29T14:51:21.574Z,102099.34
2022-08-29T14:53:54.617Z,102097.50
2022-08-29T14:56:47.504Z,102095.53
2022-08-29T14:59:23.072Z,102102.72
2022-08-29T15:01:55.751Z,102102.47
2022-08-29T15:04:35.888Z,102107.75
2022-08-29T15:07:12.573Z,102091.50
2022-08-29T15:09:44.962Z,102096.84
2022-08-29T15:12:18.047Z,102098.03
2022-08-29T15:14:50.068Z,102104.13
2022-08-29T15:17:23.893Z,102098.53
2022-08-29T15:22:48.105Z,102093.38
2022-08-29T15:25:20.600Z,102092.66
2022-08-29T15:27:52.714Z,102092.09
2022-08-29T15:30:25.575Z,102089.53
2022-08-29T15:32:58.061Z,102101.50
2022-08-29T15:35:30.260Z,102094.41
2022-08-29T15:38:07.554Z,102096.56
2022-08-29T15:40:39.530Z,102101.09
2022-08-29T15:43:12.314Z,102096.81
2022-08-29T15:45:44.283Z,102099.81
2022-08-29T15:48:16.876Z,102101.69
2022-08-29T15:50:50.908Z,102098.41
2022-08-29T15:53:22.895Z,102100.84
2022-08-29T15:55:54.953Z,102101.66
2022-08-29T15:58:26.981Z,102104.28
2022-08-29T16:00:59.398Z,102102.94
2022-08-29T16:03:31.967Z,102105.22
2022-08-29T16:06:04.463Z,102102.56
2022-08-29T16:08:37.173Z,102109.25
2022-08-29T16:11:09.471Z,102106.59
2022-08-29T16:13:41.620Z,102097.16
2022-08-29T16:16:15.144Z,102102.38
2022-08-29T16:18:47.201Z,102101.31
2022-08-29T16:21:20.318Z,102105.66
2022-08-29T16:23:53.091Z,102106.34
2022-08-29T16:26:25.104Z,102103.59
2022-08-29T16:28:57.307Z,102101.00
2022-08-29T16:31:29.403Z,102107.50
2022-08-29T16:34:02.483Z,102098.06
2022-08-29T16:36:34.973Z,102098.56
2022-08-29T16:39:09.663Z,102093.47
2022-08-29T16:41:44.565Z,102097.50
2022-08-29T16:44:16.726Z,102091.53
2022-08-29T16:46:48.837Z,102096.16
2022-08-29T16:49:20.804Z,102100.72
2022-08-29T16:51:52.783Z,102096.63
2022-08-29T16:54:25.021Z,102098.41
2022-08-29T16:56:57.615Z,102095.16
2022-08-29T16:59:30.052Z,102095.97
2022-08-29T17:02:02.794Z,102093.25
2022-08-29T17:04:35.290Z,102098.69
2022-08-29T17:07:07.567Z,102103.97
2022-08-29T17:09:39.540Z,102103.09
2022-08-29T17:12:11.679Z,102102.34
2022-08-29T17:14:43.926Z,102100.66
2022-08-29T17:17:16.352Z,102098.06
2022-08-29T17:19:48.536Z,102091.91
2022-08-29T17:22:20.807Z,102100.13
2022-08-29T17:24:53.275Z,102100.25
2022-08-29T17:27:29.876Z,102098.72
2022-08-29T17:30:03.836Z,102095.47
2022-08-29T17:32:35.861Z,102098.28
2022-08-29T17:35:08.666Z,102093.91
2022-08-29T17:37:40.630Z,102096.75
2022-08-29T17:40:13.410Z,102089.91
2022-08-29T17:42:47.818Z,102093.59
2022-08-29T17:45:19.851Z,102092.03
2022-08-29T17:47:51.916Z,102092.28
2022-08-29T17:50:25.427Z,102090.59
2022-08-29T17:52:58.236Z,102090.91
2022-08-29T17:55:30.453Z,102093.56
2022-08-29T17:58:02.533Z,102093.78
2022-08-29T18:00:36.141Z,102105.31
2022-08-29T18:03:08.223Z,102106.38
2022-08-29T18:05:40.259Z,102117.16
2022-08-29T18:08:12.299Z,102116.44
2022-08-29T18:10:44.295Z,102123.56
2022-08-29T18:13:21.013Z,102122.84
2022-08-29T18:15:53.951Z,102134.47
2022-08-29T18:18:26.503Z,102124.81
2022-08-29T18:20:58.706Z,102137.34
2022-08-29T18:23:31.159Z,102133.13
2022-08-29T18:26:05.011Z,102148.38
2022-08-29T18:28:37.059Z,102142.22
2022-08-29T18:31:11.668Z,102136.94
2022-08-29T18:34:00.192Z,102148.59
2022-08-29T18:36:36.314Z,102155.84
2022-08-29T18:39:12.568Z,102154.34
2022-08-29T18:41:45.008Z,102155.50
2022-08-29T18:44:16.973Z,102149.38
2022-08-29T18:46:49.005Z,102157.38
2022-08-29T18:49:41.187Z,102159.16
2022-08-29T18:52:14.518Z,102163.59
2022-08-29T18:54:46.541Z,102164.50
2022-08-29T18:57:18.585Z,102169.84
2022-08-29T18:59:51.007Z,102169.97
2022-08-29T19:02:23.510Z,102171.81
2022-08-29T19:04:55.607Z,102184.31
2022-08-29T19:07:27.629Z,102180.88
2022-08-29T19:09:59.650Z,102181.00
2022-08-29T19:12:31.745Z,102174.97
2022-08-29T19:15:06.183Z,102182.13
2022-08-29T19:17:41.203Z,102181.22
2022-08-29T19:20:35.438Z,102184.97
2022-08-29T19:23:08.925Z,102184.16
2022-08-29T19:25:41.906Z,102188.69
2022-08-29T19:28:15.695Z,102186.13
2022-08-29T19:30:49.597Z,102196.03
2022-08-29T19:33:21.970Z,102203.25
2022-08-29T19:35:54.059Z,102200.69
2022-08-29T19:38:27.601Z,102200.81
2022-08-29T19:41:01.521Z,102200.94
2022-08-29T19:43:35.203Z,102207.19
2022-08-29T19:46:18.315Z,102201.06
2022-08-29T19:48:52.332Z,102210.03
2022-08-29T19:51:25.471Z,102203.94
2022-08-29T19:53:57.739Z,102209.44
2022-08-29T19:56:30.138Z,102211.25
2022-08-29T19:59:02.221Z,102214.00
2022-08-29T20:01:34.543Z,102208.69
2022-08-29T20:04:06.770Z,102208.78
2022-08-29T20:06:38.786Z,102209.72
2022-08-29T20:09:11.148Z,102216.75
2022-08-29T20:11:43.818Z,102216.84
2022-08-29T20:14:16.894Z,102222.22
2022-08-29T20:16:49.161Z,102232.09
2022-08-29T20:19:21.941Z,102229.47
2022-08-29T20:21:54.385Z,102233.16
2022-08-29T20:24:27.373Z,102235.81
2022-08-29T20:27:01.090Z,102240.25
2022-08-29T20:29:33.136Z,102242.06
2022-08-29T20:32:07.303Z,102248.28
2022-08-29T20:34:39.542Z,102246.53
2022-08-29T20:37:15.227Z,102249.28
2022-08-29T20:39:47.902Z,102253.81
2022-08-29T20:42:22.034Z,102257.41
2022-08-29T20:44:57.937Z,102263.66
2022-08-29T20:47:29.982Z,102249.53
2022-08-29T20:50:02.172Z,102243.34
2022-08-29T20:52:37.260Z,102251.38
2022-08-29T20:55:09.511Z,102253.22
2022-08-29T20:57:41.830Z,102252.41
2022-08-29T21:00:14.756Z,102263.91
2022-08-29T21:03:06.763Z,102264.84
2022-08-29T21:05:45.672Z,102266.56
2022-08-29T21:08:22.763Z,102268.31
2022-08-29T21:10:56.382Z,102273.69
2022-08-29T21:13:29.016Z,102271.13
2022-08-29T21:16:01.835Z,102271.19
2022-08-29T21:18:34.005Z,102277.44
2022-08-29T21:21:06.934Z,102273.94
2022-08-29T21:23:40.211Z,102276.69
2022-08-29T21:26:14.037Z,102278.53
2022-08-29T21:28:47.180Z,102272.41
2022-08-29T21:31:20.694Z,102271.50
2022-08-29T21:33:52.863Z,102261.03
2022-08-29T21:36:29.326Z,102262.81
2022-08-29T21:39:01.520Z,102271.75
2022-08-29T21:41:37.123Z,102274.41
2022-08-29T21:44:11.610Z,102273.53
2022-08-29T21:46:46.333Z,102273.59
2022-08-29T21:49:21.581Z,102277.22
2022-08-29T21:51:53.893Z,102280.88
2022-08-29T21:54:26.763Z,102274.75
2022-08-29T21:56:58.747Z,102274.81
2022-08-29T21:59:30.809Z,102274.00
2022-08-29T22:02:04.339Z,102269.59
2022-08-29T22:04:36.483Z,102270.50
2022-08-29T22:07:09.365Z,102273.16
2022-08-29T22:09:41.460Z,102268.78
2022-08-29T22:12:13.484Z,102268.88
2022-08-29T22:15:04.113Z,102268.81
2022-08-29T22:17:36.135Z,102268.91
2022-08-29T22:20:08.787Z,102260.97
2022-08-29T22:22:41.211Z,102263.69
2022-08-29T22:25:13.422Z,102257.59
2022-08-29T22:27:45.527Z,102259.44
2022-08-29T22:30:17.772Z,102259.53
2022-08-29T22:32:54.086Z,102262.28
2022-08-29T22:35:26.426Z,102266.75
2022-08-29T22:37:59.231Z,102265.97
2022-08-29T22:40:31.809Z,102256.38
2022-08-29T22:43:03.869Z,102256.41
2022-08-29T22:45:35.867Z,102267.06
2022-08-29T22:48:09.232Z,102258.28
2022-08-29T22:50:46.037Z,102259.25
2022-08-29T22:53:30.140Z,102262.03
2022-08-29T22:56:02.417Z,102254.09
2022-08-29T22:58:36.666Z,102261.13
2022-08-29T23:01:08.996Z,102261.94
2022-08-29T23:03:41.042Z,102255.88
2022-08-29T23:06:13.053Z,102262.09
2022-08-29T23:08:45.065Z,102265.72
2022-08-29T23:11:18.046Z,102265.72
2022-08-29T23:13:50.082Z,102275.47
2022-08-29T23:16:23.995Z,102270.25
2022-08-29T23:18:56.092Z,102270.28
2022-08-29T23:21:30.073Z,102279.13
2022-08-29T23:24:03.425Z,102272.94
2022-08-29T23:26:35.961Z,102265.88
2022-08-29T23:29:07.929Z,102272.03
2022-08-29T23:31:40.161Z,102272.94
2022-08-29T23:34:13.191Z,102279.16
2022-08-29T23:36:45.167Z,102282.72
2022-08-29T23:39:17.192Z,102277.47
2022-08-29T23:41:49.215Z,102278.34
2022-08-29T23:44:21.270Z,102280.16
2022-08-29T23:46:56.268Z,102277.53
2022-08-29T23:49:28.352Z,102279.44
2022-08-29T23:52:00.437Z,102277.75
2022-08-29T23:54:35.266Z,102279.56
2022-08-29T23:57:07.270Z,102284.00
